PWSweather.com
Personal Weather Stations
Station Observations
GEELONGWX1
Bell Post Hill, GeelongAU

Bell Post HillGeelongAU

Lat: -38.101, Lon: 144.326

Elevation: 204

Station Type: Davis Vantage Pro2

http://www.geelongweather.com

High Low Average
Temperature 0.0°F-17.8°F 0.0°F-17.8°F 0.0°F-17.8°F
Dew Point 0.0°F-17.8°F 0.0°F-17.8°F 0.0°F-17.8°F
Winds Calm Calm Calm Calm Calm Calm
Wind Gusts -- -- --
Humidity 0% 0% 0%
Pressure 0.00 in0.00 in 0.00 in0.00 in -
Precipitation 0.00 in0.00 in - -
Hour Temp Dew Point Humidity Winds Wind Gusts Pressure Precip Precip Rate Daily Precip Total
12:00 AM 57.0°F13.9°C 47.3°F8.5°C 70% Calm Calm -- 29.94 in1013.9 mb 0.00 in0.0 mm 0.00 in/hr0.0 mm/hr 0.00 in0.0 mm
12:10 AM 57.1°F13.9°C 47.4°F8.6°C 70% Calm Calm -- 29.94 in1013.9 mb 0.00 in0.0 mm 0.00 in/hr0.0 mm/hr 0.00 in0.0 mm
12:20 AM 57.0°F13.9°C 47.3°F8.5°C 70% Calm Calm -- 29.94 in1013.9 mb 0.00 in0.0 mm 0.00 in/hr0.0 mm/hr 0.00 in0.0 mm
12:30 AM 56.7°F13.7°C 47.0°F8.3°C 70% Calm Calm -- 29.94 in1013.9 mb 0.00 in0.0 mm 0.00 in/hr0.0 mm/hr 0.00 in0.0 mm
12:40 AM 56.4°F13.6°C 47.1°F8.4°C 71% Calm Calm -- 29.94 in1013.9 mb 0.00 in0.0 mm 0.00 in/hr0.0 mm/hr 0.00 in0.0 mm
12:50 AM 56.1°F13.4°C 47.2°F8.4°C 72% Calm Calm -- 29.93 in1013.5 mb 0.00 in0.0 mm 0.00 in/hr0.0 mm/hr 0.00 in0.0 mm
01:00 AM 55.8°F13.2°C 46.9°F8.3°C 72% Calm Calm -- 29.93 in1013.5 mb 0.00 in0.0 mm 0.00 in/hr0.0 mm/hr 0.00 in0.0 mm
01:10 AM 55.4°F13.0°C 46.9°F8.3°C 73% Calm Calm -- 29.93 in1013.5 mb 0.00 in0.0 mm 0.00 in/hr0.0 mm/hr 0.00 in0.0 mm
01:20 AM 55.0°F12.8°C 46.5°F8.1°C 73% Calm Calm -- 29.92 in1013.2 mb 0.00 in0.0 mm 0.00 in/hr0.0 mm/hr 0.00 in0.0 mm
01:30 AM 54.6°F12.6°C 46.1°F7.8°C 73% Calm Calm -- 29.92 in1013.2 mb 0.00 in0.0 mm 0.00 in/hr0.0 mm/hr 0.00 in0.0 mm
01:40 AM 54.2°F12.3°C 46.1°F7.8°C 74% Calm Calm -- 29.91 in1012.9 mb 0.00 in0.0 mm 0.00 in/hr0.0 mm/hr 0.00 in0.0 mm
01:50 AM 53.7°F12.1°C 45.6°F7.6°C 74% Calm Calm -- 29.91 in1012.9 mb 0.00 in0.0 mm 0.00 in/hr0.0 mm/hr 0.00 in0.0 mm
02:00 AM 53.3°F11.8°C 45.6°F7.6°C 75% Calm Calm -- 29.91 in1012.9 mb 0.00 in0.0 mm 0.00 in/hr0.0 mm/hr 0.00 in0.0 mm
02:10 AM 52.9°F11.6°C 45.5°F7.5°C 76% Calm Calm -- 29.90 in1012.5 mb 0.00 in0.0 mm 0.00 in/hr0.0 mm/hr 0.00 in0.0 mm
02:20 AM 52.5°F11.4°C 45.5°F7.5°C 77% Calm Calm -- 29.90 in1012.5 mb 0.00 in0.0 mm 0.00 in/hr0.0 mm/hr 0.00 in0.0 mm
02:30 AM 52.2°F11.2°C 45.2°F7.3°C 77% Calm Calm -- 29.89 in1012.2 mb 0.00 in0.0 mm 0.00 in/hr0.0 mm/hr 0.00 in0.0 mm
02:40 AM 51.8°F11.0°C 44.8°F7.1°C 77% Calm Calm -- 29.89 in1012.2 mb 0.00 in0.0 mm 0.00 in/hr0.0 mm/hr 0.00 in0.0 mm
02:50 AM 51.6°F10.9°C 44.9°F7.2°C 78% Calm Calm -- 29.89 in1012.2 mb 0.00 in0.0 mm 0.00 in/hr0.0 mm/hr 0.00 in0.0 mm
03:00 AM 51.3°F10.7°C 44.7°F7.1°C 78% Calm Calm -- 29.89 in1012.2 mb 0.00 in0.0 mm 0.00 in/hr0.0 mm/hr 0.00 in0.0 mm
03:10 AM 51.2°F10.7°C 44.6°F7.0°C 78% Calm Calm -- 29.88 in1011.9 mb 0.00 in0.0 mm 0.00 in/hr0.0 mm/hr 0.00 in0.0 mm
03:20 AM 51.2°F10.7°C 44.6°F7.0°C 78% Calm Calm -- 29.88 in1011.9 mb 0.00 in0.0 mm 0.00 in/hr0.0 mm/hr 0.00 in0.0 mm
03:30 AM 51.2°F10.7°C 44.6°F7.0°C 78% Calm Calm -- 29.87 in1011.5 mb 0.00 in0.0 mm 0.00 in/hr0.0 mm/hr 0.00 in0.0 mm
03:40 AM 51.2°F10.7°C 44.6°F7.0°C 78% Calm Calm -- 29.87 in1011.5 mb 0.00 in0.0 mm 0.00 in/hr0.0 mm/hr 0.00 in0.0 mm
03:50 AM 51.1°F10.6°C 44.5°F6.9°C 78% Calm Calm -- 29.86 in1011.2 mb 0.00 in0.0 mm 0.00 in/hr0.0 mm/hr 0.00 in0.0 mm
04:00 AM 51.0°F10.6°C 44.4°F6.9°C 78% Calm Calm -- 29.86 in1011.2 mb 0.00 in0.0 mm 0.00 in/hr0.0 mm/hr 0.00 in0.0 mm
04:10 AM 51.0°F10.6°C 44.4°F6.9°C 78% Calm Calm -- 29.86 in1011.2 mb 0.00 in0.0 mm 0.00 in/hr0.0 mm/hr 0.00 in0.0 mm
04:20 AM 51.0°F10.6°C 44.4°F6.9°C 78% Calm Calm -- 29.86 in1011.2 mb 0.00 in0.0 mm 0.00 in/hr0.0 mm/hr 0.00 in0.0 mm
04:30 AM 51.0°F10.6°C 44.3°F6.8°C 78% Calm Calm -- 29.86 in1011.2 mb 0.00 in0.0 mm 0.00 in/hr0.0 mm/hr 0.00 in0.0 mm
04:40 AM 50.8°F10.4°C 44.2°F6.8°C 78% Calm Calm -- 29.86 in1011.2 mb 0.00 in0.0 mm 0.00 in/hr0.0 mm/hr 0.00 in0.0 mm
04:50 AM 50.8°F10.4°C 44.5°F6.9°C 79% Calm Calm -- 29.86 in1011.2 mb 0.00 in0.0 mm 0.00 in/hr0.0 mm/hr 0.00 in0.0 mm
05:00 AM 50.9°F10.5°C 44.3°F6.8°C 78% Calm Calm -- 29.87 in1011.5 mb 0.00 in0.0 mm 0.00 in/hr0.0 mm/hr 0.00 in0.0 mm
05:10 AM 50.9°F10.5°C 44.3°F6.8°C 78% Calm Calm -- 29.87 in1011.5 mb 0.00 in0.0 mm 0.00 in/hr0.0 mm/hr 0.00 in0.0 mm
05:20 AM 51.0°F10.6°C 44.4°F6.9°C 78% Calm Calm -- 29.87 in1011.5 mb 0.00 in0.0 mm 0.00 in/hr0.0 mm/hr 0.00 in0.0 mm
05:30 AM 51.0°F10.6°C 44.4°F6.9°C 78% Calm Calm -- 29.87 in1011.5 mb 0.00 in0.0 mm 0.00 in/hr0.0 mm/hr 0.00 in0.0 mm
05:40 AM 50.8°F10.4°C 44.2°F6.8°C 78% Calm Calm -- 29.87 in1011.5 mb 0.00 in0.0 mm 0.00 in/hr0.0 mm/hr 0.00 in0.0 mm
05:50 AM 50.7°F10.4°C 44.1°F6.7°C 78% Calm Calm -- 29.87 in1011.5 mb 0.00 in0.0 mm 0.00 in/hr0.0 mm/hr 0.00 in0.0 mm
06:00 AM 50.6°F10.3°C 44.3°F6.8°C 79% Calm Calm -- 29.88 in1011.9 mb 0.00 in0.0 mm 0.00 in/hr0.0 mm/hr 0.00 in0.0 mm
06:10 AM 50.4°F10.2°C 43.8°F6.6°C 78% Calm Calm -- 29.88 in1011.9 mb 0.00 in0.0 mm 0.00 in/hr0.0 mm/hr 0.00 in0.0 mm
06:20 AM 50.2°F10.1°C 43.6°F6.4°C 78% Calm Calm -- 29.88 in1011.9 mb 0.00 in0.0 mm 0.00 in/hr0.0 mm/hr 0.00 in0.0 mm
06:30 AM 50.2°F10.1°C 43.9°F6.6°C 79% Calm Calm -- 29.88 in1011.9 mb 0.00 in0.0 mm 0.00 in/hr0.0 mm/hr 0.00 in0.0 mm
06:40 AM 50.5°F10.3°C 44.3°F6.8°C 79% Calm Calm -- 29.88 in1011.9 mb 0.00 in0.0 mm 0.00 in/hr0.0 mm/hr 0.00 in0.0 mm
06:50 AM 51.2°F10.7°C 44.6°F7.0°C 78% Calm Calm -- 29.88 in1011.9 mb 0.00 in0.0 mm 0.00 in/hr0.0 mm/hr 0.00 in0.0 mm
07:00 AM 52.9°F11.6°C 46.2°F7.9°C 78% Calm Calm -- 29.88 in1011.9 mb 0.00 in0.0 mm 0.00 in/hr0.0 mm/hr 0.00 in0.0 mm
07:10 AM 55.9°F13.3°C 48.1°F8.9°C 75% Calm Calm -- 29.86 in1011.2 mb 0.00 in0.0 mm 0.00 in/hr0.0 mm/hr 0.00 in0.0 mm
07:20 AM 57.4°F14.1°C 48.4°F9.1°C 72% 1.7 mph E2.7 kmh E 5.0 mph8.0 kmh 29.86 in1011.2 mb 0.00 in0.0 mm 0.00 in/hr0.0 mm/hr 0.00 in0.0 mm
07:30 AM 58.6°F14.8°C 48.8°F9.3°C 70% 1.7 mph NNE2.7 kmh NNE 6.0 mph9.7 kmh 29.85 in1010.8 mb 0.00 in0.0 mm 0.00 in/hr0.0 mm/hr 0.00 in0.0 mm
07:40 AM 59.7°F15.4°C 49.1°F9.5°C 68% 2.6 mph NE4.2 kmh NE 7.0 mph11.3 kmh 29.85 in1010.8 mb 0.00 in0.0 mm 0.00 in/hr0.0 mm/hr 0.00 in0.0 mm
07:50 AM 60.4°F15.8°C 49.4°F9.7°C 67% 2.5 mph NE4.0 kmh NE 8.0 mph12.9 kmh 29.84 in1010.5 mb 0.00 in0.0 mm 0.00 in/hr0.0 mm/hr 0.00 in0.0 mm
08:00 AM 61.6°F16.4°C 49.3°F9.6°C 64% 8.2 mph E13.2 kmh E 17.0 mph27.4 kmh 29.84 in1010.5 mb 0.00 in0.0 mm 0.00 in/hr0.0 mm/hr 0.00 in0.0 mm
08:10 AM 63.1°F17.3°C 49.9°F9.9°C 62% 6.3 mph NE10.1 kmh NE 14.0 mph22.5 kmh 29.84 in1010.5 mb 0.00 in0.0 mm 0.00 in/hr0.0 mm/hr 0.00 in0.0 mm
08:20 AM 63.5°F17.5°C 49.4°F9.7°C 60% 8.6 mph NE13.8 kmh NE 15.0 mph24.1 kmh 29.83 in1010.2 mb 0.00 in0.0 mm 0.00 in/hr0.0 mm/hr 0.00 in0.0 mm
08:30 AM 64.2°F17.9°C 49.6°F9.8°C 59% 10.2 mph NE16.4 kmh NE 17.0 mph27.4 kmh 29.83 in1010.2 mb 0.00 in0.0 mm 0.00 in/hr0.0 mm/hr 0.00 in0.0 mm
08:40 AM 63.9°F17.7°C 49.8°F9.9°C 60% 5.0 mph NE8.0 kmh NE 10.0 mph16.1 kmh 29.83 in1010.2 mb 0.00 in0.0 mm 0.00 in/hr0.0 mm/hr 0.00 in0.0 mm
08:50 AM 64.6°F18.1°C 49.9°F9.9°C 59% 1.7 mph NE2.7 kmh NE 4.0 mph6.4 kmh 29.82 in1009.8 mb 0.00 in0.0 mm 0.00 in/hr0.0 mm/hr 0.00 in0.0 mm
09:00 AM 66.3°F19.1°C 50.1°F10.1°C 56% 8.0 mph ENE12.9 kmh ENE 15.0 mph24.1 kmh 29.81 in1009.5 mb 0.00 in0.0 mm 0.00 in/hr0.0 mm/hr 0.00 in0.0 mm
09:10 AM 67.8°F19.9°C 50.5°F10.3°C 54% 4.9 mph NNE7.9 kmh NNE 13.0 mph20.9 kmh 29.81 in1009.5 mb 0.00 in0.0 mm 0.00 in/hr0.0 mm/hr 0.00 in0.0 mm
09:20 AM 68.1°F20.1°C 49.3°F9.6°C 51% 11.2 mph NE18.0 kmh NE 19.0 mph30.6 kmh 29.81 in1009.5 mb 0.00 in0.0 mm 0.00 in/hr0.0 mm/hr 0.00 in0.0 mm
09:30 AM 68.1°F20.1°C 48.7°F9.3°C 50% 11.7 mph N18.8 kmh N 28.0 mph45.1 kmh 29.80 in1009.1 mb 0.00 in0.0 mm 0.00 in/hr0.0 mm/hr 0.00 in0.0 mm
09:40 AM 69.2°F20.7°C 49.2°F9.6°C 49% 8.6 mph NNE13.8 kmh NNE 17.0 mph27.4 kmh 29.80 in1009.1 mb 0.00 in0.0 mm 0.00 in/hr0.0 mm/hr 0.00 in0.0 mm
09:50 AM 68.9°F20.5°C 48.4°F9.1°C 48% 11.7 mph NNE18.8 kmh NNE 18.0 mph29.0 kmh 29.79 in1008.8 mb 0.00 in0.0 mm 0.00 in/hr0.0 mm/hr 0.00 in0.0 mm
10:00 AM 68.2°F20.1°C 48.3°F9.1°C 49% 14.1 mph N22.7 kmh N 29.0 mph46.7 kmh 29.79 in1008.8 mb 0.00 in0.0 mm 0.00 in/hr0.0 mm/hr 0.00 in0.0 mm
10:10 AM 69.3°F20.7°C 49.9°F9.9°C 50% 8.5 mph N13.7 kmh N 15.0 mph24.1 kmh 29.78 in1008.5 mb 0.00 in0.0 mm 0.00 in/hr0.0 mm/hr 0.00 in0.0 mm
10:20 AM 69.0°F20.6°C 48.5°F9.2°C 48% 10.3 mph NNW16.6 kmh NNW 17.0 mph27.4 kmh 29.78 in1008.5 mb 0.00 in0.0 mm 0.00 in/hr0.0 mm/hr 0.00 in0.0 mm
10:30 AM 68.9°F20.5°C 48.4°F9.1°C 48% 11.0 mph NE17.7 kmh NE 18.0 mph29.0 kmh 29.77 in1008.1 mb 0.00 in0.0 mm 0.00 in/hr0.0 mm/hr 0.00 in0.0 mm
10:40 AM 69.0°F20.6°C 49.0°F9.4°C 49% 12.4 mph NNE20.0 kmh NNE 20.0 mph32.2 kmh 29.77 in1008.1 mb 0.00 in0.0 mm 0.00 in/hr0.0 mm/hr 0.00 in0.0 mm
10:50 AM 69.5°F20.8°C 49.5°F9.7°C 49% 11.0 mph N17.7 kmh N 22.0 mph35.4 kmh 29.77 in1008.1 mb 0.00 in0.0 mm 0.00 in/hr0.0 mm/hr 0.00 in0.0 mm
11:00 AM 70.0°F21.1°C 50.0°F10.0°C 49% 15.1 mph N24.3 kmh N 26.0 mph41.8 kmh 29.76 in1007.8 mb 0.00 in0.0 mm 0.00 in/hr0.0 mm/hr 0.00 in0.0 mm
11:10 AM 70.3°F21.3°C 49.7°F9.8°C 48% 12.5 mph N20.1 kmh N 21.0 mph33.8 kmh 29.76 in1007.8 mb 0.00 in0.0 mm 0.00 in/hr0.0 mm/hr 0.00 in0.0 mm
11:20 AM 71.1°F21.7°C 50.4°F10.2°C 48% 10.2 mph NNE16.4 kmh NNE 18.0 mph29.0 kmh 29.75 in1007.5 mb 0.00 in0.0 mm 0.00 in/hr0.0 mm/hr 0.00 in0.0 mm
11:30 AM 71.0°F21.7°C 50.3°F10.2°C 48% 12.6 mph N20.3 kmh N 24.0 mph38.6 kmh 29.74 in1007.1 mb 0.00 in0.0 mm 0.00 in/hr0.0 mm/hr 0.00 in0.0 mm
11:40 AM 69.9°F21.1°C 49.3°F9.6°C 48% 11.9 mph N19.2 kmh N 22.0 mph35.4 kmh 29.74 in1007.1 mb 0.00 in0.0 mm 0.00 in/hr0.0 mm/hr 0.00 in0.0 mm
11:50 AM 69.4°F20.8°C 48.8°F9.3°C 48% 15.2 mph NE24.5 kmh NE 24.0 mph38.6 kmh 29.74 in1007.1 mb 0.00 in0.0 mm 0.00 in/hr0.0 mm/hr 0.00 in0.0 mm
12:00 PM 69.3°F20.7°C 49.3°F9.6°C 49% 10.7 mph NNW17.2 kmh NNW 16.0 mph25.7 kmh 29.73 in1006.8 mb 0.00 in0.0 mm 0.00 in/hr0.0 mm/hr 0.00 in0.0 mm
12:10 PM 69.6°F20.9°C 49.6°F9.8°C 49% 14.1 mph N22.7 kmh N 24.0 mph38.6 kmh 29.73 in1006.8 mb 0.00 in0.0 mm 0.00 in/hr0.0 mm/hr 0.00 in0.0 mm
12:20 PM 71.2°F21.8°C 49.3°F9.6°C 46% 14.8 mph N23.8 kmh N 22.0 mph35.4 kmh 29.71 in1006.1 mb 0.00 in0.0 mm 0.00 in/hr0.0 mm/hr 0.00 in0.0 mm
12:30 PM 71.4°F21.9°C 48.3°F9.1°C 44% 12.0 mph N19.3 kmh N 21.0 mph33.8 kmh 29.70 in1005.8 mb 0.00 in0.0 mm 0.00 in/hr0.0 mm/hr 0.00 in0.0 mm
12:40 PM 71.5°F21.9°C 49.7°F9.8°C 46% 10.5 mph N16.9 kmh N 16.0 mph25.7 kmh 29.70 in1005.8 mb 0.00 in0.0 mm 0.00 in/hr0.0 mm/hr 0.00 in0.0 mm
12:50 PM 71.9°F22.2°C 48.2°F9.0°C 43% 14.0 mph N22.5 kmh N 22.0 mph35.4 kmh 29.68 in1005.1 mb 0.00 in0.0 mm 0.00 in/hr0.0 mm/hr 0.00 in0.0 mm
01:00 PM 73.6°F23.1°C 48.4°F9.1°C 41% 12.8 mph NNE20.6 kmh NNE 34.0 mph54.7 kmh 29.67 in1004.7 mb 0.00 in0.0 mm 0.00 in/hr0.0 mm/hr 0.00 in0.0 mm
01:10 PM 73.2°F22.9°C 46.1°F7.8°C 38% 18.2 mph N29.3 kmh N 25.0 mph40.2 kmh 29.67 in1004.7 mb 0.00 in0.0 mm 0.00 in/hr0.0 mm/hr 0.00 in0.0 mm
01:20 PM 72.2°F22.3°C 46.5°F8.1°C 40% 15.1 mph N24.3 kmh N 18.0 mph29.0 kmh 29.66 in1004.4 mb 0.00 in0.0 mm 0.00 in/hr0.0 mm/hr 0.00 in0.0 mm
01:30 PM 71.7°F22.1°C 46.1°F7.8°C 40% 14.5 mph N23.3 kmh N 26.0 mph41.8 kmh 29.66 in1004.4 mb 0.00 in0.0 mm 0.00 in/hr0.0 mm/hr 0.00 in0.0 mm
01:40 PM 71.9°F22.2°C 45.6°F7.6°C 39% 14.8 mph NNE23.8 kmh NNE 26.0 mph41.8 kmh 29.65 in1004.1 mb 0.00 in0.0 mm 0.00 in/hr0.0 mm/hr 0.00 in0.0 mm
01:50 PM 70.9°F21.6°C 46.0°F7.8°C 41% 12.0 mph NNE19.3 kmh NNE 33.0 mph53.1 kmh 29.66 in1004.4 mb 0.00 in0.0 mm 0.00 in/hr0.0 mm/hr 0.00 in0.0 mm
02:00 PM 70.3°F21.3°C 44.8°F7.1°C 40% 18.8 mph N30.3 kmh N 30.0 mph48.3 kmh 29.67 in1004.7 mb 0.00 in0.0 mm 0.00 in/hr0.0 mm/hr 0.00 in0.0 mm
02:10 PM 66.9°F19.4°C 52.1°F11.2°C 59% 26.4 mph W42.5 kmh W 30.0 mph48.3 kmh 29.70 in1005.8 mb 0.00 in0.0 mm 0.00 in/hr0.0 mm/hr 0.00 in0.0 mm
02:20 PM 58.4°F14.7°C 49.0°F9.4°C 71% 11.5 mph NNW18.5 kmh NNW 30.0 mph48.3 kmh 29.74 in1007.1 mb 0.02 in0.5 mm 0.12 in/hr3.0 mm/hr 0.02 in0.5 mm
02:30 PM 56.0°F13.3°C 48.6°F9.2°C 76% 15.3 mph NW24.6 kmh NW 27.0 mph43.5 kmh 29.74 in1007.1 mb 0.02 in0.5 mm 0.12 in/hr3.0 mm/hr 0.04 in1.0 mm
02:40 PM 55.9°F13.3°C 48.8°F9.3°C 77% 16.2 mph NNW26.1 kmh NNW 34.0 mph54.7 kmh 29.74 in1007.1 mb 0.02 in0.5 mm 0.12 in/hr3.0 mm/hr 0.06 in1.5 mm
02:50 PM 54.4°F12.4°C 47.3°F8.5°C 77% 16.4 mph NW26.4 kmh NW 27.0 mph43.5 kmh 29.76 in1007.8 mb 0.03 in0.8 mm 0.18 in/hr4.6 mm/hr 0.09 in2.3 mm
03:00 PM 52.9°F11.6°C 46.2°F7.9°C 78% 21.2 mph NW34.1 kmh NW 26.0 mph41.8 kmh 29.79 in1008.8 mb 0.03 in0.8 mm 0.04 in/hr1.0 mm/hr 0.12 in3.0 mm
03:10 PM 52.2°F11.2°C 45.2°F7.3°C 77% 20.1 mph NW32.3 kmh NW 31.0 mph49.9 kmh 29.79 in1008.8 mb 0.03 in0.8 mm 0.18 in/hr4.6 mm/hr 0.14 in3.6 mm
03:20 PM 51.9°F11.1°C 45.2°F7.3°C 78% 21.0 mph NW33.8 kmh NW 31.0 mph49.9 kmh 29.80 in1009.1 mb 0.00 in0.0 mm 0.00 in/hr0.0 mm/hr 0.14 in3.6 mm
03:30 PM 50.8°F10.4°C 44.2°F6.8°C 78% 16.4 mph WNW26.4 kmh WNW 41.0 mph66.0 kmh 29.83 in1010.2 mb 0.00 in0.0 mm 0.00 in/hr0.0 mm/hr 0.14 in3.6 mm
03:40 PM 49.5°F9.7°C 42.9°F6.1°C 78% 14.1 mph NNW22.7 kmh NNW 26.0 mph41.8 kmh 29.84 in1010.5 mb 0.03 in0.8 mm 0.18 in/hr4.6 mm/hr 0.17 in4.3 mm
03:50 PM 49.2°F9.6°C 43.0°F6.1°C 79% 8.9 mph N14.3 kmh N 14.0 mph22.5 kmh 29.82 in1009.8 mb 0.01 in0.3 mm 0.06 in/hr1.5 mm/hr 0.18 in4.6 mm
04:00 PM 49.5°F9.7°C 43.0°F6.1°C 78% 10.7 mph N17.2 kmh N 17.0 mph27.4 kmh 29.82 in1009.8 mb 0.00 in0.0 mm 0.00 in/hr0.0 mm/hr 0.18 in4.6 mm
04:10 PM 50.2°F10.1°C 43.6°F6.4°C 78% 11.1 mph NNW17.9 kmh NNW 13.0 mph20.9 kmh 29.84 in1010.5 mb 0.00 in0.0 mm 0.00 in/hr0.0 mm/hr 0.18 in4.6 mm
04:20 PM 51.3°F10.7°C 44.7°F7.1°C 78% 8.0 mph N12.9 kmh N 16.0 mph25.7 kmh 29.84 in1010.5 mb 0.00 in0.0 mm 0.00 in/hr0.0 mm/hr 0.18 in4.6 mm
04:30 PM 51.6°F10.9°C 44.9°F7.2°C 78% 7.1 mph NW11.4 kmh NW 13.0 mph20.9 kmh 29.84 in1010.5 mb 0.00 in0.0 mm 0.00 in/hr0.0 mm/hr 0.18 in4.6 mm
04:40 PM 52.0°F11.1°C 45.0°F7.2°C 77% 8.0 mph NW12.9 kmh NW 12.0 mph19.3 kmh 29.85 in1010.8 mb 0.00 in0.0 mm 0.00 in/hr0.0 mm/hr 0.18 in4.6 mm
04:50 PM 52.4°F11.3°C 45.4°F7.4°C 77% 7.8 mph NW12.6 kmh NW 11.0 mph17.7 kmh 29.84 in1010.5 mb 0.00 in0.0 mm 0.00 in/hr0.0 mm/hr 0.18 in4.6 mm
05:00 PM 53.5°F11.9°C 46.5°F8.1°C 77% 9.4 mph N15.1 kmh N 19.0 mph30.6 kmh 29.85 in1010.8 mb 0.00 in0.0 mm 0.00 in/hr0.0 mm/hr 0.18 in4.6 mm
05:10 PM 53.7°F12.1°C 46.3°F7.9°C 76% 8.2 mph NW13.2 kmh NW 11.0 mph17.7 kmh 29.85 in1010.8 mb 0.00 in0.0 mm 0.00 in/hr0.0 mm/hr 0.18 in4.6 mm
05:20 PM 53.3°F11.8°C 46.3°F7.9°C 77% 12.4 mph N20.0 kmh N 21.0 mph33.8 kmh 29.86 in1011.2 mb 0.00 in0.0 mm 0.00 in/hr0.0 mm/hr 0.18 in4.6 mm
05:30 PM 52.3°F11.3°C 45.3°F7.4°C 77% 14.6 mph NW23.5 kmh NW 23.0 mph37.0 kmh 29.88 in1011.9 mb 0.01 in0.3 mm 0.06 in/hr1.5 mm/hr 0.19 in4.8 mm
05:40 PM 50.6°F10.3°C 43.3°F6.3°C 76% 11.1 mph NNW17.9 kmh NNW 19.0 mph30.6 kmh 29.90 in1012.5 mb 0.01 in0.3 mm 0.06 in/hr1.5 mm/hr 0.20 in5.1 mm
05:50 PM 49.2°F9.6°C 42.6°F5.9°C 78% 9.4 mph NW15.1 kmh NW 16.0 mph25.7 kmh 29.91 in1012.9 mb 0.00 in0.0 mm 0.00 in/hr0.0 mm/hr 0.20 in5.1 mm
06:00 PM 48.9°F9.4°C 42.3°F5.7°C 78% 7.0 mph N11.3 kmh N 14.0 mph22.5 kmh 29.91 in1012.9 mb 0.00 in0.0 mm 0.00 in/hr0.0 mm/hr 0.20 in5.1 mm
06:10 PM 48.7°F9.3°C 42.1°F5.6°C 78% 8.0 mph NW12.9 kmh NW 11.0 mph17.7 kmh 29.91 in1012.9 mb 0.00 in0.0 mm 0.00 in/hr0.0 mm/hr 0.20 in5.1 mm
06:20 PM 48.3°F9.1°C 42.1°F5.6°C 79% 6.9 mph NNW11.1 kmh NNW 17.0 mph27.4 kmh 29.91 in1012.9 mb 0.00 in0.0 mm 0.00 in/hr0.0 mm/hr 0.20 in5.1 mm
06:30 PM 48.1°F8.9°C 41.9°F5.5°C 79% 6.9 mph NNW11.1 kmh NNW 13.0 mph20.9 kmh 29.91 in1012.9 mb 0.00 in0.0 mm 0.00 in/hr0.0 mm/hr 0.20 in5.1 mm
06:40 PM 48.1°F8.9°C 41.9°F5.5°C 79% 7.2 mph N11.6 kmh N 13.0 mph20.9 kmh 29.92 in1013.2 mb 0.00 in0.0 mm 0.00 in/hr0.0 mm/hr 0.20 in5.1 mm
06:50 PM 48.0°F8.9°C 41.5°F5.3°C 78% 5.6 mph N9.0 kmh N 10.0 mph16.1 kmh 29.92 in1013.2 mb 0.00 in0.0 mm 0.00 in/hr0.0 mm/hr 0.20 in5.1 mm
07:00 PM 47.8°F8.8°C 41.6°F5.3°C 79% 4.8 mph N7.7 kmh N 13.0 mph20.9 kmh 29.93 in1013.5 mb 0.00 in0.0 mm 0.00 in/hr0.0 mm/hr 0.20 in5.1 mm
07:10 PM 47.9°F8.8°C 41.7°F5.4°C 79% 5.0 mph NW8.0 kmh NW 8.0 mph12.9 kmh 29.95 in1014.2 mb 0.00 in0.0 mm 0.00 in/hr0.0 mm/hr 0.20 in5.1 mm
07:20 PM 47.8°F8.8°C 41.6°F5.3°C 79% 9.4 mph WNW15.1 kmh WNW 16.0 mph25.7 kmh 29.97 in1014.9 mb 0.09 in2.3 mm 0.54 in/hr13.7 mm/hr 0.29 in7.4 mm
07:30 PM 46.7°F8.2°C 40.5°F4.7°C 79% 6.1 mph NW9.8 kmh NW 10.0 mph16.1 kmh 29.96 in1014.6 mb 0.02 in0.5 mm 0.12 in/hr3.0 mm/hr 0.30 in7.6 mm
07:40 PM 46.1°F7.8°C 39.9°F4.4°C 79% 6.3 mph N10.1 kmh N 11.0 mph17.7 kmh 29.95 in1014.2 mb 0.00 in0.0 mm 0.00 in/hr0.0 mm/hr 0.30 in7.6 mm
07:50 PM 46.3°F7.9°C 40.2°F4.6°C 79% 5.2 mph NW8.4 kmh NW 10.0 mph16.1 kmh 29.96 in1014.6 mb 0.00 in0.0 mm 0.00 in/hr0.0 mm/hr 0.30 in7.6 mm
08:00 PM 46.5°F8.1°C 40.1°F4.5°C 78% 6.9 mph NNE11.1 kmh NNE 10.0 mph16.1 kmh 29.96 in1014.6 mb 0.00 in0.0 mm 0.00 in/hr0.0 mm/hr 0.30 in7.6 mm
08:10 PM 46.4°F8.0°C 39.9°F4.4°C 78% 6.2 mph NW10.0 kmh NW 10.0 mph16.1 kmh 29.96 in1014.6 mb 0.00 in0.0 mm 0.00 in/hr0.0 mm/hr 0.30 in7.6 mm
08:20 PM 46.2°F7.9°C 39.7°F4.3°C 78% 7.4 mph NNE11.9 kmh NNE 10.0 mph16.1 kmh 29.97 in1014.9 mb 0.00 in0.0 mm 0.00 in/hr0.0 mm/hr 0.30 in7.6 mm
08:30 PM 46.0°F7.8°C 39.5°F4.2°C 78% 5.7 mph NNW9.2 kmh NNW 10.0 mph16.1 kmh 29.98 in1015.2 mb 0.00 in0.0 mm 0.00 in/hr0.0 mm/hr 0.30 in7.6 mm
08:40 PM 45.8°F7.7°C 39.4°F4.1°C 78% 6.7 mph NNE10.8 kmh NNE 9.0 mph14.5 kmh 29.98 in1015.2 mb 0.00 in0.0 mm 0.00 in/hr0.0 mm/hr 0.30 in7.6 mm
08:50 PM 45.8°F7.7°C 39.4°F4.1°C 78% 3.6 mph NW5.8 kmh NW 9.0 mph14.5 kmh 29.98 in1015.2 mb 0.00 in0.0 mm 0.00 in/hr0.0 mm/hr 0.30 in7.6 mm
09:00 PM 45.8°F7.7°C 39.3°F4.1°C 78% 6.3 mph NNE10.1 kmh NNE 13.0 mph20.9 kmh 29.99 in1015.6 mb 0.00 in0.0 mm 0.00 in/hr0.0 mm/hr 0.30 in7.6 mm
09:10 PM 45.7°F7.6°C 39.2°F4.0°C 78% 9.8 mph N15.8 kmh N 16.0 mph25.7 kmh 29.99 in1015.6 mb 0.00 in0.0 mm 0.00 in/hr0.0 mm/hr 0.30 in7.6 mm
09:20 PM 45.6°F7.6°C 39.5°F4.2°C 79% 8.8 mph NNW14.2 kmh NNW 15.0 mph24.1 kmh 29.99 in1015.6 mb 0.00 in0.0 mm 0.00 in/hr0.0 mm/hr 0.30 in7.6 mm
09:30 PM 45.4°F7.4°C 39.3°F4.1°C 79% 10.4 mph NNW16.7 kmh NNW 17.0 mph27.4 kmh 30.00 in1015.9 mb 0.00 in0.0 mm 0.00 in/hr0.0 mm/hr 0.30 in7.6 mm
09:40 PM 45.4°F7.4°C 39.3°F4.1°C 79% 8.6 mph NNW13.8 kmh NNW 15.0 mph24.1 kmh 30.01 in1016.3 mb 0.00 in0.0 mm 0.00 in/hr0.0 mm/hr 0.30 in7.6 mm
09:50 PM 45.5°F7.5°C 39.4°F4.1°C 79% 10.9 mph N17.5 kmh N 17.0 mph27.4 kmh 30.02 in1016.6 mb 0.00 in0.0 mm 0.00 in/hr0.0 mm/hr 0.30 in7.6 mm
10:00 PM 45.3°F7.4°C 39.2°F4.0°C 79% 11.2 mph NW18.0 kmh NW 17.0 mph27.4 kmh 30.02 in1016.6 mb 0.01 in0.3 mm 0.01 in/hr0.3 mm/hr 0.31 in7.9 mm
10:10 PM 44.8°F7.1°C 39.0°F3.9°C 80% 7.7 mph NNW12.4 kmh NNW 10.0 mph16.1 kmh 30.03 in1016.9 mb 0.00 in0.0 mm 0.00 in/hr0.0 mm/hr 0.31 in7.9 mm
10:20 PM 44.4°F6.9°C 38.3°F3.5°C 79% 8.4 mph N13.5 kmh N 12.0 mph19.3 kmh 30.03 in1016.9 mb 0.00 in0.0 mm 0.00 in/hr0.0 mm/hr 0.31 in7.9 mm
10:30 PM 44.3°F6.8°C 38.2°F3.4°C 79% 8.2 mph N13.2 kmh N 11.0 mph17.7 kmh 30.03 in1016.9 mb 0.00 in0.0 mm 0.00 in/hr0.0 mm/hr 0.31 in7.9 mm
10:40 PM 44.2°F6.8°C 38.1°F3.4°C 79% 6.8 mph NE10.9 kmh NE 9.0 mph14.5 kmh 30.04 in1017.3 mb 0.00 in0.0 mm 0.00 in/hr0.0 mm/hr 0.31 in7.9 mm
10:50 PM 44.1°F6.7°C 38.0°F3.3°C 79% 3.5 mph NW5.6 kmh NW 7.0 mph11.3 kmh 30.04 in1017.3 mb 0.00 in0.0 mm 0.00 in/hr0.0 mm/hr 0.31 in7.9 mm
11:00 PM 43.9°F6.6°C 37.8°F3.2°C 79% 7.0 mph NNW11.3 kmh NNW 12.0 mph19.3 kmh 30.04 in1017.3 mb 0.00 in0.0 mm 0.00 in/hr0.0 mm/hr 0.31 in7.9 mm
11:10 PM 43.9°F6.6°C 37.8°F3.2°C 79% 5.4 mph NNW8.7 kmh NNW 11.0 mph17.7 kmh 30.04 in1017.3 mb 0.00 in0.0 mm 0.00 in/hr0.0 mm/hr 0.31 in7.9 mm
11:20 PM 43.9°F6.6°C 37.8°F3.2°C 79% 5.2 mph NW8.4 kmh NW 8.0 mph12.9 kmh 30.05 in1017.6 mb 0.00 in0.0 mm 0.00 in/hr0.0 mm/hr 0.31 in7.9 mm
11:30 PM 43.9°F6.6°C 37.8°F3.2°C 79% 6.0 mph NW9.7 kmh NW 12.0 mph19.3 kmh 30.05 in1017.6 mb 0.00 in0.0 mm 0.00 in/hr0.0 mm/hr 0.31 in7.9 mm
11:40 PM 43.8°F6.6°C 37.7°F3.2°C 79% 5.5 mph NNW8.9 kmh NNW 13.0 mph20.9 kmh 30.05 in1017.6 mb 0.00 in0.0 mm 0.00 in/hr0.0 mm/hr 0.31 in7.9 mm
11:50 PM 43.9°F6.6°C 37.8°F3.2°C 79% 8.9 mph NW14.3 kmh NW 15.0 mph24.1 kmh 30.06 in1017.9 mb 0.00 in0.0 mm 0.00 in/hr0.0 mm/hr 0.31 in7.9 mm